createdAt,value
2016-07-05T00:01:42.617Z,1017.48
2016-07-05T00:06:42.602Z,1017.45
2016-07-05T00:11:42.584Z,1017.5
2016-07-05T00:16:42.567Z,1017.46
2016-07-05T00:21:42.545Z,1017.4
2016-07-05T00:26:42.523Z,1017.32
2016-07-05T00:31:42.507Z,1017.3
2016-07-05T00:36:42.487Z,1017.26
2016-07-05T00:41:42.468Z,1017.16
2016-07-05T00:46:42.447Z,1017.23
2016-07-05T00:51:42.426Z,1017.24
2016-07-05T00:56:42.406Z,1017.17
2016-07-05T01:01:42.386Z,1017.07
2016-07-05T01:06:42.363Z,1016.91
2016-07-05T01:11:42.341Z,1016.97
2016-07-05T01:16:42.323Z,1016.93
2016-07-05T01:21:42.306Z,1016.9
2016-07-05T01:26:42.283Z,1016.83
2016-07-05T01:31:42.263Z,1016.67
2016-07-05T01:36:42.243Z,1016.62
2016-07-05T01:41:42.225Z,1016.58
2016-07-05T01:46:42.206Z,1016.52
2016-07-05T01:51:42.189Z,1016.43
2016-07-05T01:56:42.167Z,1016.3
2016-07-05T02:01:42.213Z,1016.24
2016-07-05T02:06:42.128Z,1016.18
2016-07-05T02:11:42.108Z,1016.16
2016-07-05T02:16:42.090Z,1016.17
2016-07-05T02:21:42.072Z,1016.08
2016-07-05T02:26:42.048Z,1015.95
2016-07-05T02:31:42.034Z,1015.96
2016-07-05T02:36:42.013Z,1015.91
2016-07-05T02:41:41.994Z,1015.9
2016-07-05T02:46:41.980Z,1015.82
2016-07-05T02:51:41.963Z,1015.76
2016-07-05T02:56:41.942Z,1015.71
2016-07-05T03:01:41.925Z,1015.7
2016-07-05T03:06:41.906Z,1015.69
2016-07-05T03:11:41.887Z,1015.71
2016-07-05T03:16:41.871Z,1015.62
2016-07-05T03:21:41.852Z,1015.64
2016-07-05T03:26:41.829Z,1015.66
2016-07-05T03:31:41.809Z,1015.62
2016-07-05T03:36:41.796Z,1015.57
2016-07-05T03:41:41.779Z,1015.55
2016-07-05T03:46:41.760Z,1015.52
2016-07-05T03:51:41.740Z,1015.48
2016-07-05T03:56:41.725Z,1015.45
2016-07-05T04:01:41.709Z,1015.4
2016-07-05T04:06:41.691Z,1015.43
2016-07-05T04:11:41.673Z,1015.48
2016-07-05T04:16:41.659Z,1015.38
2016-07-05T04:21:41.642Z,1015.38
2016-07-05T04:26:41.625Z,1015.36
2016-07-05T04:31:41.607Z,1015.36
2016-07-05T04:36:41.589Z,1015.36
2016-07-05T04:41:41.573Z,1015.37
2016-07-05T04:46:41.566Z,1015.4
2016-07-05T04:51:41.549Z,1015.38
2016-07-05T04:56:41.539Z,1015.27
2016-07-05T05:01:41.529Z,1015.28
2016-07-05T05:06:41.522Z,1015.26
2016-07-05T05:11:41.514Z,1015.27
2016-07-05T05:16:41.510Z,1015.26
2016-07-05T05:21:41.508Z,1015.21
2016-07-05T05:26:41.510Z,1015.18
2016-07-05T05:31:41.511Z,1015.12
2016-07-05T05:36:41.511Z,1015.14
2016-07-05T05:41:41.512Z,1015.08
2016-07-05T05:46:41.507Z,1015.07
2016-07-05T05:51:41.618Z,1015.06
2016-07-05T05:56:41.513Z,1015.01
2016-07-05T06:01:41.511Z,1014.97
2016-07-05T06:06:41.505Z,1014.96
2016-07-05T06:11:41.502Z,1014.92
2016-07-05T06:16:41.499Z,1014.94
2016-07-05T06:21:41.495Z,1014.99
2016-07-05T06:26:41.484Z,1014.99
2016-07-05T06:31:41.479Z,1014.95
2016-07-05T06:36:41.473Z,1014.98
2016-07-05T06:41:41.464Z,1015
2016-07-05T06:46:41.457Z,1015.06
2016-07-05T06:51:41.452Z,1015.06
2016-07-05T06:56:41.449Z,1015.03
2016-07-05T07:01:41.448Z,1015.01
2016-07-05T07:06:41.441Z,1014.95
2016-07-05T07:11:41.447Z,1014.91
2016-07-05T07:16:41.440Z,1014.9
2016-07-05T07:21:41.439Z,1014.93
2016-07-05T07:26:41.437Z,1014.81
2016-07-05T07:31:41.437Z,1014.73
2016-07-05T07:36:41.437Z,1014.77
2016-07-05T07:41:41.436Z,1014.78
2016-07-05T07:46:41.433Z,1014.86
2016-07-05T07:51:41.435Z,1014.84
2016-07-05T07:56:41.432Z,1014.83
2016-07-05T08:01:41.392Z,1014.94
